Time;durP1;ratioP1;P1;durP2;ratioP2;P2;SDS_P1;SDS_P2;PMS_P1;PMS_P2;Temp;Humidity;BMP_temperature;BMP_pressure;BME280_temperature;BME280_humidity;BME280_pressure;Samples;Min_cycle;Max_cycle;Signal;HPM_P1;HPM_P2
2023/11/08 00:04:02;;;;;;;5.72;1.40;;;;;;;9.36;81.57;100004.53;10202145;28;20043;-66
2023/11/08 00:09:05;;;;;;;4.18;1.98;;;;;;;9.28;81.91;99998.16;10197217;28;21034;-66
2023/11/08 00:14:08;;;;;;;5.43;1.85;;;;;;;9.30;81.97;100006.84;10199101;28;20196;-67
2023/11/08 00:19:09;;;;;;;4.07;1.48;;;;;;;9.31;81.67;99997.91;10202178;28;20094;-66
2023/11/08 00:24:11;;;;;;;3.22;1.58;;;;;;;9.32;82.05;100004.88;10193341;28;20123;-66
2023/11/08 00:29:12;;;;;;;5.15;2.08;;;;;;;9.36;81.41;100016.97;10197957;28;20598;-65
2023/11/08 00:34:16;;;;;;;5.20;1.48;;;;;;;9.41;81.81;100009.47;10198310;28;20047;-64
2023/11/08 00:39:18;;;;;;;4.78;1.30;;;;;;;9.42;81.67;100010.34;10208675;28;20057;-66
2023/11/08 00:44:21;;;;;;;4.95;1.75;;;;;;;9.36;81.98;100006.34;10212283;28;20048;-66
2023/11/08 00:49:22;;;;;;;4.75;1.77;;;;;;;9.40;82.33;100002.50;10210688;28;20055;-66
2023/11/08 00:54:23;;;;;;;6.30;1.33;;;;;;;9.42;82.27;100005.84;10221386;28;20609;-66
2023/11/08 00:59:26;;;;;;;2.55;0.93;;;;;;;9.39;82.26;100006.09;10220477;28;20054;-67
2023/11/08 01:04:28;;;;;;;6.25;1.95;;;;;;;9.23;83.17;100011.78;10212479;28;20162;-66
2023/11/08 01:09:29;;;;;;;3.67;1.15;;;;;;;9.23;83.08;100017.06;10216609;28;20138;-66
2023/11/08 01:14:32;;;;;;;5.50;2.22;;;;;;;9.26;83.20;100018.66;10206332;28;20145;-66
2023/11/08 01:19:36;;;;;;;6.18;1.27;;;;;;;9.25;83.20;100027.59;10201599;28;20081;-66
2023/11/08 01:24:41;;;;;;;2.10;1.30;;;;;;;9.31;83.05;100029.78;10210648;28;20563;-65
2023/11/08 01:29:43;;;;;;;2.45;1.05;;;;;;;9.19;82.95;100026.28;10202045;28;20050;-67
2023/11/08 01:34:44;;;;;;;3.80;1.00;;;;;;;9.29;83.02;100032.56;10202779;28;20489;-66
2023/11/08 01:39:46;;;;;;;2.55;1.25;;;;;;;9.31;83.06;100030.63;10207120;28;20058;-65
2023/11/08 01:44:48;;;;;;;6.07;1.58;;;;;;;9.37;82.58;100034.59;10215832;28;20044;-65
2023/11/08 01:49:50;;;;;;;7.45;1.70;;;;;;;9.40;82.04;100033.50;10206218;28;20059;-66
2023/11/08 01:54:54;;;;;;;6.95;1.05;;;;;;;9.33;82.39;100035.81;10220328;28;20127;-67
2023/11/08 01:59:59;;;;;;;3.50;1.50;;;;;;;9.29;82.69;100029.91;10209000;28;20059;-66
2023/11/08 02:05:02;;;;;;;4.35;1.10;;;;;;;9.43;82.17;100033.25;10208300;28;20138;-66
2023/11/08 02:10:04;;;;;;;2.80;1.30;;;;;;;9.39;81.94;100045.94;10203838;28;20588;-67
2023/11/08 02:15:06;;;;;;;4.78;1.20;;;;;;;9.27;82.05;100023.00;10216678;28;20059;-65
2023/11/08 02:20:08;;;;;;;2.38;1.02;;;;;;;9.27;82.31;100039.78;10201730;28;20065;-66
2023/11/08 02:25:12;;;;;;;7.80;2.58;;;;;;;9.35;82.43;100034.72;10201268;28;20055;-67
2023/11/08 02:30:14;;;;;;;6.40;1.60;;;;;;;9.41;81.63;100024.56;10217299;28;20090;-67
2023/11/08 02:35:16;;;;;;;6.00;1.52;;;;;;;9.35;81.92;100036.53;10215981;28;20565;-67
2023/11/08 02:40:18;;;;;;;4.00;1.27;;;;;;;9.26;82.40;100026.63;10204381;28;20062;-66
2023/11/08 02:45:21;;;;;;;5.13;1.50;;;;;;;9.30;82.29;100028.09;10201826;28;20063;-65
2023/11/08 02:50:23;;;;;;;4.05;1.63;;;;;;;9.27;82.55;100033.63;10206097;28;20051;-67
2023/11/08 02:55:26;;;;;;;3.50;1.60;;;;;;;9.37;82.32;100046.06;10205729;28;20061;-68
2023/11/08 03:00:27;;;;;;;4.00;1.27;;;;;;;9.43;82.11;100042.09;10202503;28;20040;-67
2023/11/08 03:05:32;;;;;;;2.75;1.40;;;;;;;9.46;81.72;100043.66;10203665;28;20552;-68
2023/11/08 03:10:35;;;;;;;3.58;1.65;;;;;;;9.45;81.85;100042.81;10201906;28;20058;-68
2023/11/08 03:15:37;;;;;;;5.03;1.73;;;;;;;9.45;81.74;100042.81;10201799;28;20720;-67
2023/11/08 03:20:38;;;;;;;2.00;1.00;;;;;;;9.43;81.55;100036.78;10202735;28;20472;-65
2023/11/08 03:25:40;;;;;;;2.95;1.13;;;;;;;9.43;81.54;100038.56;10196299;28;20145;-66
2023/11/08 03:30:43;;;;;;;3.28;0.88;;;;;;;9.41;81.78;100043.16;10205672;28;20061;-66
2023/11/08 03:35:44;;;;;;;3.00;0.90;;;;;;;9.43;81.76;100055.38;10202483;28;20414;-64
2023/11/08 03:40:46;;;;;;;13.35;1.50;;;;;;;9.46;81.34;100051.63;10202235;28;20749;-68
2023/11/08 03:45:49;;;;;;;6.32;1.25;;;;;;;9.49;81.28;100060.19;10199855;28;20062;-66
2023/11/08 03:50:50;;;;;;;2.05;1.27;;;;;;;9.53;81.37;100084.69;10208077;28;20058;-65
2023/11/08 03:55:52;;;;;;;3.63;1.38;;;;;;;9.61;81.49;100073.47;10205210;28;20058;-67
2023/11/08 04:00:53;;;;;;;6.75;1.13;;;;;;;9.53;80.85;100060.78;10200900;28;20131;-67
2023/11/08 04:05:55;;;;;;;2.65;1.20;;;;;;;9.54;80.90;100073.94;10197411;28;20070;-67
2023/11/08 04:10:57;;;;;;;4.53;1.50;;;;;;;9.38;80.81;100057.53;10203462;28;20063;-67
2023/11/08 04:15:58;;;;;;;2.88;1.30;;;;;;;9.52;81.29;100081.22;10208838;28;20664;-66
2023/11/08 04:21:00;;;;;;;4.38;1.40;;;;;;;9.41;81.46;100085.69;10210018;28;20051;-66
2023/11/08 04:26:02;;;;;;;2.53;1.38;;;;;;;9.45;81.34;100085.31;10209523;28;20454;-67
2023/11/08 04:31:04;;;;;;;5.07;1.42;;;;;;;9.41;81.20;100089.16;10213218;28;20051;-66
2023/11/08 04:36:12;;;;;;;3.78;0.95;;;;;;;9.36;81.46;100084.22;10215711;28;20081;-66
2023/11/08 04:41:15;;;;;;;4.15;1.98;;;;;;;9.36;81.76;100086.88;10225922;28;20054;-66
2023/11/08 04:46:17;;;;;;;3.53;1.20;;;;;;;9.33;82.27;100079.16;10210742;28;20094;-67
2023/11/08 04:51:19;;;;;;;1.70;0.80;;;;;;;9.42;81.70;100082.91;10208602;28;20066;-64
2023/11/08 04:56:20;;;;;;;3.47;1.25;;;;;;;9.44;82.01;100091.59;10207392;28;20054;-66
2023/11/08 05:01:22;;;;;;;2.80;0.93;;;;;;;9.44;81.84;100096.91;10205454;28;20053;-66
2023/11/08 05:06:24;;;;;;;2.17;0.90;;;;;;;9.47;82.21;100101.13;10204745;28;20061;-67
2023/11/08 05:11:29;;;;;;;6.38;1.20;;;;;;;9.42;82.51;100093.53;10208980;28;20198;-66
2023/11/08 05:16:31;;;;;;;3.22;1.30;;;;;;;9.38;82.60;100100.03;10214253;28;20047;-66
2023/11/08 05:21:37;;;;;;;2.97;1.30;;;;;;;9.38;82.66;100092.06;10200239;28;20059;-67
2023/11/08 05:26:39;;;;;;;3.75;1.50;;;;;;;9.32;82.89;100098.72;10206233;28;20524;-65
2023/11/08 05:31:41;;;;;;;6.95;1.08;;;;;;;9.26;83.59;100093.03;10209713;28;20055;-66
2023/11/08 05:36:42;;;;;;;3.30;1.35;;;;;;;9.24;83.67;100087.84;10204544;28;20086;-66
2023/11/08 05:41:44;;;;;;;2.95;1.70;;;;;;;9.32;83.62;100089.88;10221728;28;20040;-65
2023/11/08 05:46:45;;;;;;;2.97;1.30;;;;;;;9.26;83.81;100098.34;10212369;28;20506;-66
2023/11/08 05:51:47;;;;;;;6.65;2.03;;;;;;;9.15;84.35;100094.69;10206548;28;20130;-67
2023/11/08 05:56:48;;;;;;;5.82;2.10;;;;;;;9.20;84.20;100095.22;10205956;28;20047;-65
2023/11/08 06:01:50;;;;;;;4.38;1.65;;;;;;;9.14;84.61;100095.69;10206213;28;20060;-66
2023/11/08 06:06:51;;;;;;;5.50;2.58;;;;;;;9.11;84.97;100103.88;10200118;28;20083;-64
2023/11/08 06:11:53;;;;;;;4.57;1.88;;;;;;;9.16;85.06;100108.84;10200926;28;20062;-67
2023/11/08 06:16:55;;;;;;;4.00;1.85;;;;;;;9.16;85.15;100112.34;10197757;28;20103;-66
2023/11/08 06:21:57;;;;;;;4.63;2.50;;;;;;;9.20;85.11;100111.13;10211455;28;20062;-67
2023/11/08 06:27:00;;;;;;;4.38;2.22;;;;;;;9.16;85.46;100122.97;10201278;28;20051;-66
2023/11/08 06:32:02;;;;;;;4.65;2.10;;;;;;;9.15;85.92;100131.88;10203025;28;21032;-66
2023/11/08 06:37:04;;;;;;;5.10;2.03;;;;;;;9.17;86.05;100142.38;10173798;28;20058;-66
2023/11/08 06:42:08;;;;;;;;;;;;;;;9.24;85.69;100150.75;10205709;28;20051;-67
2023/11/08 06:47:11;;;;;;;3.85;1.80;;;;;;;9.18;86.08;100144.09;10200693;28;19994;-67
2023/11/08 06:52:12;;;;;;;9.00;2.28;;;;;;;9.23;86.07;100160.50;10196865;28;20059;-68
2023/11/08 06:57:20;;;;;;;5.63;1.67;;;;;;;9.34;86.15;100168.50;10218608;28;20058;-66
2023/11/08 07:02:27;;;;;;;4.85;2.10;;;;;;;9.35;85.57;100179.97;10208545;28;20114;-66
2023/11/08 07:07:28;;;;;;;6.05;2.35;;;;;;;9.26;86.23;100178.03;10205803;28;20061;-67
2023/11/08 07:12:30;;;;;;;5.18;1.90;;;;;;;9.16;87.05;100176.06;10208194;28;20397;-68
2023/11/08 07:17:31;;;;;;;5.30;2.28;;;;;;;9.25;86.80;100190.47;10219754;28;20399;-67
2023/11/08 07:22:36;;;;;;;8.23;2.38;;;;;;;9.30;86.59;100193.59;10211517;28;20268;-66
2023/11/08 07:27:38;;;;;;;6.28;2.00;;;;;;;9.29;87.00;100180.44;10203272;28;20051;-67
2023/11/08 07:32:40;;;;;;;10.27;2.05;;;;;;;9.17;87.53;100182.22;10190600;28;20063;-67
2023/11/08 07:37:42;;;;;;;3.90;1.88;;;;;;;9.29;87.40;100185.75;10191019;28;20078;-67
2023/11/08 07:42:43;;;;;;;6.97;2.00;;;;;;;9.29;87.26;100191.06;10190345;28;20055;-67
2023/11/08 07:47:45;;;;;;;5.05;2.13;;;;;;;9.41;87.02;100189.28;10191254;28;20100;-67
2023/11/08 07:52:49;;;;;;;4.20;1.60;;;;;;;9.62;85.86;100186.78;10190044;28;20051;-67
2023/11/08 07:57:51;;;;;;;7.05;1.40;;;;;;;9.81;84.66;100192.34;10191410;28;20055;-67
2023/11/08 08:02:53;;;;;;;12.10;2.22;;;;;;;9.81;83.68;100199.50;10187358;28;20377;-65
2023/11/08 08:07:55;;;;;;;5.32;1.75;;;;;;;9.85;83.93;100199.13;10202918;28;20047;-68
2023/11/08 08:12:58;;;;;;;5.63;1.55;;;;;;;9.96;82.83;100216.06;10206496;28;20063;-66
2023/11/08 08:17:59;;;;;;;3.58;1.38;;;;;;;10.01;82.33;100198.78;10194165;28;20417;-67
2023/11/08 08:23:01;;;;;;;6.07;1.75;;;;;;;10.04;81.53;100218.94;10190352;28;20063;-69
2023/11/08 08:28:03;;;;;;;5.45;1.88;;;;;;;10.12;81.16;100203.25;10190929;28;20653;-67
2023/11/08 08:33:05;;;;;;;3.75;1.30;;;;;;;10.04;80.18;100195.88;10188418;28;20169;-67
2023/11/08 08:38:07;;;;;;;4.10;1.65;;;;;;;10.16;80.20;100207.34;10188813;28;20170;-66
2023/11/08 08:43:08;;;;;;;6.50;1.98;;;;;;;10.17;79.04;100209.03;10186935;28;20063;-67
2023/11/08 08:48:10;;;;;;;4.25;1.60;;;;;;;10.29;79.47;100217.84;10185775;28;20779;-65
2023/11/08 08:53:11;;;;;;;3.50;1.35;;;;;;;10.39;78.92;100218.00;10193785;28;20467;-66
2023/11/08 08:58:13;;;;;;;3.28;1.25;;;;;;;10.48;78.12;100214.59;10193807;28;20054;-67
2023/11/08 09:03:15;;;;;;;3.38;1.10;;;;;;;10.51;78.03;100216.16;10206031;28;20127;-67
2023/11/08 09:08:17;;;;;;;2.95;1.20;;;;;;;10.58;77.59;100217.34;10218545;28;20058;-66
2023/11/08 09:13:18;;;;;;;4.22;1.33;;;;;;;10.72;76.59;100208.22;10218122;28;20476;-68
2023/11/08 09:18:20;;;;;;;5.32;1.17;;;;;;;10.66;75.97;100230.91;10218643;28;20169;-66
2023/11/08 09:23:22;;;;;;;5.03;1.30;;;;;;;10.42;76.17;100228.41;10212278;28;20051;-66
2023/11/08 09:28:25;;;;;;;4.47;1.23;;;;;;;10.36;76.60;100228.91;10212129;28;22631;-65
2023/11/08 09:33:27;;;;;;;5.43;1.25;;;;;;;10.37;76.26;100231.44;10207720;28;20218;-66
2023/11/08 09:38:29;;;;;;;2.35;1.17;;;;;;;10.47;75.80;100228.88;10196874;28;20142;-66
2023/11/08 09:43:34;;;;;;;4.55;1.23;;;;;;;10.60;75.46;100234.91;10194687;28;20052;-68
2023/11/08 09:48:35;;;;;;;6.67;1.30;;;;;;;10.60;75.34;100242.88;10212592;28;20055;-67
2023/11/08 09:53:38;;;;;;;2.90;1.50;;;;;;;10.54;74.06;100248.72;10209763;28;20058;-67
2023/11/08 09:58:42;;;;;;;3.17;1.05;;;;;;;10.53;74.23;100241.69;10195121;28;20082;-67
2023/11/08 10:03:45;;;;;;;3.20;0.93;;;;;;;10.39;73.78;100241.97;10200764;28;21289;-65
2023/11/08 10:08:47;;;;;;;4.38;1.15;;;;;;;10.49;74.27;100234.06;10185731;28;20294;-64
2023/11/08 10:13:51;;;;;;;2.47;0.77;;;;;;;10.54;74.12;100227.41;10197475;28;20059;-68
2023/11/08 10:18:58;;;;;;;5.55;1.25;;;;;;;10.77;73.67;100211.38;10199092;28;20414;-66
2023/11/08 10:24:19;;;;;;;3.03;1.02;;;;;;;11.02;72.61;100209.34;10211880;28;20472;-66
2023/11/08 10:29:25;;;;;;;4.65;0.95;;;;;;;11.69;70.38;100189.47;10197972;28;20635;-66
2023/11/08 10:34:27;;;;;;;3.03;1.00;;;;;;;11.95;69.50;100192.59;10197666;28;20417;-66
2023/11/08 10:39:29;;;;;;;4.57;1.13;;;;;;;12.49;67.82;100178.97;10189017;28;20131;-64
2023/11/08 10:44:31;;;;;;;2.95;0.80;;;;;;;12.25;67.02;100182.88;10192598;28;20158;-66
2023/11/08 10:49:32;;;;;;;3.45;1.17;;;;;;;12.05;68.59;100187.28;10186950;28;20416;-65
2023/11/08 10:54:35;;;;;;;4.97;0.90;;;;;;;12.17;68.34;100182.69;10193288;28;20556;-66
2023/11/08 10:59:40;;;;;;;4.28;1.65;;;;;;;11.74;68.60;100195.25;10209431;28;20054;-68
2023/11/08 11:04:43;;;;;;;5.78;1.30;;;;;;;11.38;69.78;100188.56;10196899;28;20177;-67
2023/11/08 11:09:45;;;;;;;4.57;1.55;;;;;;;11.41;70.65;100186.50;10193991;28;20051;-66
2023/11/08 11:14:52;;;;;;;4.97;1.10;;;;;;;11.58;69.82;100187.72;10192427;28;20129;-67
2023/11/08 11:19:56;;;;;;;4.22;1.20;;;;;;;11.25;70.22;100178.13;10185084;28;20062;-66
2023/11/08 11:24:58;;;;;;;4.32;1.13;;;;;;;11.23;71.29;100175.59;10194754;28;20585;-65
2023/11/08 11:30:14;;;;;;;3.67;1.53;;;;;;;11.21;71.53;100161.53;10172218;28;20050;-68
2023/11/08 11:35:28;;;;;;;3.57;1.10;;;;;;;11.29;71.61;100167.06;10201811;28;20724;-67
2023/11/08 11:40:30;;;;;;;3.65;1.25;;;;;;;11.62;70.36;100169.63;10189760;28;20047;-71
2023/11/08 11:45:32;;;;;;;3.17;1.33;;;;;;;12.63;66.51;100157.22;10192104;28;20880;-67
2023/11/08 11:50:33;;;;;;;3.50;1.17;;;;;;;12.29;66.50;100162.91;10192555;28;20196;-67
2023/11/08 11:55:35;;;;;;;3.65;1.02;;;;;;;12.06;67.34;100156.13;10187273;28;20055;-67
2023/11/08 12:00:37;;;;;;;2.28;0.90;;;;;;;12.40;66.07;100153.09;10191870;28;20166;-68
2023/11/08 12:05:39;;;;;;;2.60;0.80;;;;;;;12.22;66.29;100137.78;10193794;28;20039;-66
2023/11/08 12:10:41;;;;;;;2.88;1.05;;;;;;;12.03;67.32;100142.06;10198510;28;20114;-68
2023/11/08 12:15:43;;;;;;;4.63;1.08;;;;;;;12.04;67.86;100132.25;10202783;28;20633;-68
2023/11/08 12:20:46;;;;;;;4.18;1.33;;;;;;;11.94;67.18;100132.19;10204934;28;20295;-67
2023/11/08 12:25:49;;;;;;;5.90;1.00;;;;;;;11.97;66.82;100128.44;10194415;28;20104;-69
2023/11/08 12:30:50;;;;;;;2.25;0.98;;;;;;;12.32;66.60;100119.09;10195695;28;20168;-68
2023/11/08 12:35:52;;;;;;;7.18;1.00;;;;;;;12.68;63.55;100112.22;10208899;28;20118;-66
2023/11/08 12:41:01;;;;;;;4.20;0.95;;;;;;;12.31;65.09;100112.91;10206500;28;20055;-66
2023/11/08 12:46:09;;;;;;;6.10;1.73;;;;;;;12.14;65.75;100116.25;10202593;28;20587;-67
2023/11/08 12:51:32;;;;;;;4.53;0.65;;;;;;;11.97;66.63;100105.25;10181483;28;20138;-67
2023/11/08 12:56:38;;;;;;;2.63;0.55;;;;;;;11.82;66.77;100112.75;10192393;28;20510;-67
2023/11/08 13:01:40;;;;;;;5.05;1.33;;;;;;;11.83;67.51;100119.78;10195274;28;20039;-67
2023/11/08 13:06:42;;;;;;;3.40;1.30;;;;;;;11.64;68.27;100109.03;10208703;28;20122;-68
2023/11/08 13:11:46;;;;;;;2.87;1.57;;;;;;;11.61;68.45;100096.81;10211907;28;20776;-67
2023/11/08 13:16:47;;;;;;;3.85;1.05;;;;;;;11.70;67.78;100107.66;10199462;28;20524;-67
2023/11/08 13:21:49;;;;;;;4.20;1.50;;;;;;;11.60;68.29;100095.13;10203097;28;20740;-67
2023/11/08 13:26:51;;;;;;;2.70;0.80;;;;;;;11.64;68.40;100099.22;10206612;28;20055;-67
2023/11/08 13:31:53;;;;;;;3.08;0.85;;;;;;;11.57;68.36;100090.06;10210972;28;20054;-67
2023/11/08 13:36:58;;;;;;;4.22;0.73;;;;;;;11.49;68.71;100087.22;10208550;28;20058;-66
2023/11/08 13:42:00;;;;;;;2.72;0.77;;;;;;;11.51;69.09;100082.59;10228740;28;20417;-66
2023/11/08 13:47:01;;;;;;;2.88;0.90;;;;;;;11.51;68.88;100074.59;10198877;28;20058;-66
2023/11/08 13:52:03;;;;;;;4.85;0.77;;;;;;;11.45;69.49;100072.47;10195328;28;20142;-68
2023/11/08 13:57:06;;;;;;;1.95;0.60;;;;;;;11.51;69.78;100074.59;10189066;28;20879;-66
2023/11/08 14:02:08;;;;;;;1.98;0.77;;;;;;;11.48;69.47;100080.19;10225800;28;20077;-68
2023/11/08 14:07:10;;;;;;;1.67;0.85;;;;;;;12.25;67.16;100064.56;10200842;28;20158;-68
2023/11/08 14:12:12;;;;;;;6.20;1.45;;;;;;;12.01;67.11;100053.31;10200224;28;20046;-68
2023/11/08 14:17:19;;;;;;;3.97;1.10;;;;;;;11.98;67.49;100056.28;10221326;28;20059;-68
2023/11/08 14:22:22;;;;;;;5.35;1.33;;;;;;;11.82;67.18;100053.25;10207255;28;20142;-67
2023/11/08 14:27:23;;;;;;;2.78;0.80;;;;;;;11.68;67.43;100033.16;10210924;28;20054;-68
2023/11/08 14:32:26;;;;;;;3.55;1.35;;;;;;;11.64;67.32;100045.06;10209766;28;20125;-68
2023/11/08 14:37:29;;;;;;;3.28;0.70;;;;;;;11.55;66.59;100036.03;10208227;28;20540;-69
2023/11/08 14:42:30;;;;;;;1.42;0.70;;;;;;;11.49;66.65;100041.91;10205223;28;20047;-69
2023/11/08 14:47:32;;;;;;;1.20;0.47;;;;;;;11.46;65.75;100027.03;10204142;28;20055;-69
2023/11/08 14:52:34;;;;;;;2.33;0.70;;;;;;;11.46;65.87;100020.88;10217641;28;20061;-70
2023/11/08 14:57:35;;;;;;;2.22;0.80;;;;;;;11.52;66.49;100008.81;10201585;28;20086;-70
2023/11/08 15:02:37;;;;;;;2.10;0.70;;;;;;;11.53;66.77;100007.81;10202123;28;20064;-69
2023/11/08 15:07:39;;;;;;;1.35;0.60;;;;;;;11.55;67.17;100009.38;10206930;28;20059;-69
2023/11/08 15:13:01;;;;;;;1.35;0.60;;;;;;;11.53;67.84;100005.16;10210736;28;20055;-68
2023/11/08 15:18:02;;;;;;;1.48;1.00;;;;;;;11.47;68.21;100007.41;10208253;28;20070;-68
2023/11/08 15:23:05;;;;;;;2.92;1.10;;;;;;;11.44;69.13;99988.16;10195545;28;20063;-67
2023/11/08 15:28:14;;;;;;;2.30;0.90;;;;;;;11.41;69.82;99988.44;10206043;28;20493;-69
2023/11/08 15:33:16;;;;;;;1.60;0.73;;;;;;;11.33;70.64;99989.09;10204277;28;20708;-71
2023/11/08 15:38:19;;;;;;;2.15;1.10;;;;;;;11.27;71.22;99979.00;10216036;28;20078;-71
2023/11/08 15:43:23;;;;;;;2.53;0.98;;;;;;;11.28;71.45;99965.53;10202281;28;20146;-71
2023/11/08 15:48:25;;;;;;;5.45;1.58;;;;;;;11.30;71.94;99968.06;10206241;28;20380;-68
2023/11/08 15:53:27;;;;;;;3.38;1.25;;;;;;;11.26;72.35;99963.97;10205580;28;20054;-69
2023/11/08 15:58:28;;;;;;;2.83;0.82;;;;;;;11.26;72.74;99953.31;10220806;28;20482;-69
2023/11/08 16:03:32;;;;;;;1.77;0.80;;;;;;;11.27;72.80;99945.22;10215317;28;20043;-69
2023/11/08 16:08:35;;;;;;;4.03;1.38;;;;;;;11.26;72.97;99938.19;10204257;28;20055;-67
2023/11/08 16:13:36;;;;;;;2.78;0.95;;;;;;;11.25;73.29;99928.50;10208385;28;20103;-68
2023/11/08 16:18:38;;;;;;;3.88;1.23;;;;;;;11.20;73.30;99930.75;10203286;28;20058;-64
2023/11/08 16:23:40;;;;;;;3.20;1.17;;;;;;;11.19;73.57;99937.03;10207663;28;20575;-68
2023/11/08 16:28:44;;;;;;;2.55;0.85;;;;;;;11.20;73.15;99928.09;10208839;28;20047;-67
2023/11/08 16:33:49;;;;;;;3.35;1.60;;;;;;;11.21;73.90;99921.75;10203736;28;20070;-69
2023/11/08 16:38:51;;;;;;;3.80;1.02;;;;;;;11.15;73.98;99903.66;10206467;28;20430;-67
2023/11/08 16:43:53;;;;;;;1.83;1.00;;;;;;;11.15;73.87;99916.97;10209014;28;20055;-68
2023/11/08 16:48:54;;;;;;;2.45;1.40;;;;;;;11.10;74.31;99916.53;10201406;28;20090;-67
2023/11/08 16:53:57;;;;;;;3.78;1.75;;;;;;;11.11;74.53;99911.09;10203038;28;20059;-67
2023/11/08 16:59:02;;;;;;;4.30;2.03;;;;;;;11.07;74.81;99924.81;10205435;28;20051;-68
2023/11/08 17:04:04;;;;;;;2.70;1.98;;;;;;;11.03;74.51;99918.06;10206631;28;20083;-69
2023/11/08 17:09:05;;;;;;;3.95;2.40;;;;;;;11.04;74.50;99903.78;10208348;28;20652;-69
2023/11/08 17:14:07;;;;;;;2.97;1.50;;;;;;;11.09;74.09;99893.53;10204062;28;20054;-68
2023/11/08 17:19:10;;;;;;;3.85;1.73;;;;;;;11.07;74.26;99890.19;10209746;28;20197;-68
2023/11/08 17:24:11;;;;;;;4.72;2.10;;;;;;;11.08;74.38;99897.19;10221666;28;20476;-68
2023/11/08 17:29:16;;;;;;;2.90;1.75;;;;;;;11.01;74.12;99891.56;10209418;28;20137;-68
2023/11/08 17:34:17;;;;;;;3.75;1.92;;;;;;;11.03;74.20;99891.44;10219008;28;20047;-69
2023/11/08 17:39:19;;;;;;;3.45;1.83;;;;;;;10.96;74.28;99876.00;10220188;28;20505;-68
2023/11/08 17:44:21;;;;;;;1.95;1.17;;;;;;;11.03;74.08;99865.63;10224646;28;20109;-69
2023/11/08 17:49:23;;;;;;;3.03;1.33;;;;;;;11.00;74.50;99865.91;10210653;28;20059;-69
2023/11/08 17:54:24;;;;;;;2.83;1.10;;;;;;;10.93;73.75;99867.44;10208293;28;20064;-69
2023/11/08 17:59:27;;;;;;;1.92;1.20;;;;;;;10.88;73.86;99856.34;10208663;28;20094;-70
2023/11/08 18:04:29;;;;;;;1.25;0.90;;;;;;;10.90;73.85;99859.69;10205223;28;20549;-69
2023/11/08 18:09:30;;;;;;;2.05;0.90;;;;;;;10.93;73.76;99854.97;10222754;28;20206;-69
2023/11/08 18:14:32;;;;;;;4.20;1.48;;;;;;;10.87;73.74;99858.16;10214791;28;20039;-70
2023/11/08 18:19:41;;;;;;;6.30;1.58;;;;;;;10.84;73.86;99842.47;10220612;28;20057;-69
2023/11/08 18:24:44;;;;;;;4.13;1.40;;;;;;;10.93;73.97;99849.63;10197034;28;20058;-67
2023/11/08 18:29:46;;;;;;;6.70;3.38;;;;;;;10.94;73.45;99840.66;10204566;28;20115;-66
2023/11/08 18:34:47;;;;;;;5.03;2.25;;;;;;;10.95;73.19;99829.03;10206807;28;20150;-66
2023/11/08 18:39:49;;;;;;;3.58;2.03;;;;;;;10.98;73.27;99827.91;10210363;28;20070;-67
2023/11/08 18:44:51;;;;;;;3.72;2.13;;;;;;;10.95;73.69;99818.38;10203943;28;20127;-65
2023/11/08 18:49:53;;;;;;;3.38;1.90;;;;;;;10.94;73.69;99823.84;10206649;28;20187;-68
2023/11/08 18:54:57;;;;;;;6.50;1.80;;;;;;;11.01;73.71;99834.78;10205142;28;20138;-64
2023/11/08 18:59:59;;;;;;;2.50;1.58;;;;;;;11.03;73.55;99816.84;10201433;28;20776;-66
2023/11/08 19:05:01;;;;;;;3.47;1.70;;;;;;;11.03;73.21;99811.53;10213896;28;20044;-65
2023/11/08 19:10:04;;;;;;;2.58;1.50;;;;;;;11.02;72.80;99816.03;10203264;28;20682;-67
2023/11/08 19:15:06;;;;;;;1.98;1.25;;;;;;;11.02;72.93;99812.50;10213473;28;20051;-67
2023/11/08 19:20:09;;;;;;;3.13;1.65;;;;;;;11.02;72.88;99800.03;10218041;28;20835;-67
2023/11/08 19:25:11;;;;;;;3.25;1.40;;;;;;;10.98;72.62;99787.13;10205342;28;20114;-69
2023/11/08 19:30:15;;;;;;;2.72;1.42;;;;;;;11.03;73.04;99782.22;10199255;28;20046;-67
2023/11/08 19:35:17;;;;;;;2.40;1.50;;;;;;;11.07;72.63;99776.47;10190829;28;20120;-69
2023/11/08 19:40:19;;;;;;;2.67;1.45;;;;;;;11.03;72.57;99783.06;10202642;28;20055;-68
2023/11/08 19:45:22;;;;;;;3.35;1.50;;;;;;;11.07;72.47;99775.66;10189071;28;20051;-69
2023/11/08 19:50:29;;;;;;;4.40;1.48;;;;;;;11.03;71.45;99760.91;10179295;28;20047;-69
2023/11/08 19:55:33;;;;;;;3.00;1.40;;;;;;;10.99;71.21;99752.38;10220724;28;20066;-69
2023/11/08 20:00:35;;;;;;;2.15;1.05;;;;;;;11.07;70.98;99757.00;10203804;28;20074;-68
2023/11/08 20:05:37;;;;;;;1.80;1.48;;;;;;;11.10;70.81;99759.38;10214628;28;20058;-66
2023/11/08 20:10:38;;;;;;;4.00;1.35;;;;;;;11.09;69.65;99747.03;10205342;28;20476;-67
2023/11/08 20:15:40;;;;;;;1.45;0.70;;;;;;;11.08;69.54;99761.34;10207008;28;20058;-68
2023/11/08 20:20:42;;;;;;;1.67;0.95;;;;;;;11.06;69.97;99750.00;10206327;28;20051;-68
2023/11/08 20:25:44;;;;;;;1.63;1.33;;;;;;;11.08;70.01;99746.22;10205200;28;20044;-69
2023/11/08 20:30:46;;;;;;;3.72;1.00;;;;;;;11.14;69.74;99740.31;10206902;28;20063;-73
2023/11/08 20:35:48;;;;;;;2.83;1.77;;;;;;;11.16;68.89;99739.34;10193196;28;20189;-67
2023/11/08 20:40:49;;;;;;;2.15;1.17;;;;;;;11.12;68.63;99725.44;10212622;28;20066;-70
2023/11/08 20:45:52;;;;;;;3.03;1.88;;;;;;;11.18;68.58;99730.22;10200436;28;20047;-69
2023/11/08 20:50:57;;;;;;;1.75;0.90;;;;;;;11.17;67.60;99722.38;10205844;28;20070;-68
2023/11/08 20:56:06;;;;;;;1.70;1.10;;;;;;;11.11;68.13;99702.47;10202979;28;20054;-69
2023/11/08 21:01:09;;;;;;;2.50;1.20;;;;;;;11.14;67.59;99707.53;10205426;28;20062;-69
2023/11/08 21:06:13;;;;;;;1.95;1.13;;;;;;;11.18;68.24;99708.91;10208807;28;20131;-70
2023/11/08 21:11:17;;;;;;;2.47;1.10;;;;;;;11.18;68.20;99708.91;10217809;28;20137;-70
2023/11/08 21:16:21;;;;;;;2.30;1.40;;;;;;;11.11;69.04;99691.84;10219365;28;20118;-67
2023/11/08 21:21:23;;;;;;;2.47;1.85;;;;;;;11.08;69.60;99692.94;10213720;28;20706;-66
2023/11/08 21:26:27;;;;;;;3.83;2.30;;;;;;;11.05;69.90;99687.91;10211141;28;20051;-67
2023/11/08 21:31:28;;;;;;;2.22;1.75;;;;;;;10.96;70.15;99683.41;10211233;28;20073;-67
2023/11/08 21:36:32;;;;;;;2.55;2.00;;;;;;;11.00;70.56;99678.63;10206181;28;20610;-67
2023/11/08 21:41:33;;;;;;;3.30;2.28;;;;;;;10.94;70.79;99680.91;10216145;28;20870;-67
2023/11/08 21:46:37;;;;;;;3.33;3.03;;;;;;;10.93;70.65;99673.88;10209528;28;20422;-67
2023/11/08 21:51:39;;;;;;;4.00;3.70;;;;;;;10.92;70.72;99669.53;10203358;28;20077;-66
2023/11/08 21:56:44;;;;;;;5.37;4.73;;;;;;;10.89;70.84;99672.47;10202571;28;20163;-66
2023/11/08 22:01:47;;;;;;;3.65;3.33;;;;;;;10.86;70.55;99662.09;10202031;28;20078;-66
2023/11/08 22:06:50;;;;;;;2.40;1.87;;;;;;;10.86;71.17;99655.94;10192972;28;20143;-66
2023/11/08 22:11:52;;;;;;;3.60;2.60;;;;;;;10.86;71.45;99646.13;10190484;28;20106;-67
2023/11/08 22:16:55;;;;;;;6.07;5.47;;;;;;;10.87;71.11;99647.81;10219290;28;20048;-67
2023/11/08 22:21:57;;;;;;;4.60;3.83;;;;;;;10.81;70.97;99624.41;10190364;28;20051;-67
2023/11/08 22:26:58;;;;;;;18.50;15.40;;;;;;;10.82;70.69;99633.25;10206281;28;20783;-66
2023/11/08 22:32:00;;;;;;;7.75;6.22;;;;;;;10.83;71.25;99635.75;10209545;28;20049;-69
2023/11/08 22:37:02;;;;;;;4.50;2.80;;;;;;;10.80;71.37;99630.72;10195071;28;20059;-66
2023/11/08 22:42:03;;;;;;;3.28;2.40;;;;;;;10.74;71.63;99624.13;10187520;28;20058;-66
2023/11/08 22:47:05;;;;;;;2.40;1.98;;;;;;;10.79;71.77;99619.22;10188176;28;20059;-68
2023/11/08 22:52:08;;;;;;;3.78;1.60;;;;;;;10.87;72.48;99621.19;10182191;28;20672;-67
2023/11/08 22:57:10;;;;;;;2.70;1.77;;;;;;;10.83;72.02;99611.78;10190261;28;20062;-68
2023/11/08 23:02:14;;;;;;;2.92;1.80;;;;;;;10.89;72.26;99602.41;10188235;28;20928;-67
2023/11/08 23:07:16;;;;;;;3.40;1.77;;;;;;;10.86;72.07;99608.84;10194394;28;20058;-67
2023/11/08 23:12:17;;;;;;;2.97;2.20;;;;;;;10.85;72.42;99598.34;10196693;28;20055;-67
2023/11/08 23:17:19;;;;;;;3.70;1.88;;;;;;;10.85;72.76;99587.69;10182142;28;21902;-67
2023/11/08 23:22:20;;;;;;;2.97;1.95;;;;;;;10.81;72.80;99584.47;10205088;28;20059;-65